Andrey Gusyev

Chief Scout - Rubin
15 Oct 2028
Sunday
Process

Personality

Adaptability (19) Ambition (2) Controversy (4) Loyalty (13) Pressure (10) Professionalism (7) Sportsmanship (3) Temperament (19)

Profile

Coaching Style Democratic
License National A
Determination 11
Man Management 10
Motivating 12
Discipline 6
Job Satisfaction
100%
Fatigue
0%
Role Chief Scout
Wage 90.6K p/w
Contract 14.03.2030

Performance

Behaviour Good
Training Effectiveness
55%
Player Development
30%
Injury Prevention
30%
Tactical Implementation
50%

Recent Events

Voted against a transfer target now
Attended a recruitment meeting now
Recommended a transfer target now
Recommended a transfer target now
Recommended a transfer target now
Birthday now
Assessed a player now
Observed a match now

Currently Monitoring

191
Player Club Status Ability Confidence Watched Last Observed Latest Vote
Gideon Manaseh Ikorodu City Active 100 / 82 40% 2 14.10.2028 -
Musa Malik Ikorodu City Active 87 / 108 40% 2 11.10.2028 -
Emmanuel Ndubueze Shooting Stars Active 93 / 109 40% 1 11.10.2028 -
Ayanda Tibe Gor Mahia Active 92 / 88 40% 1 11.10.2028 -
Yaroslav Khramtsevich Uni-X Labs Active 82 / 85 40% 2 09.10.2028 -
Julian Hall Real Salt Lake Active 113 / 132 40% 1 09.10.2028 -
Sean Steur Rotherham United Active 132 / 132 40% 1 09.10.2028 -
Sayfiddin Sodikov Andijon Active 95 / 116 40% 1 08.10.2028 -
Juan Ruíz Díaz Los Andes Active 76 / 99 40% 1 08.10.2028 -
Ismail Bekbolat Kairat Active 103 / 106 40% 1 06.10.2028 -
Henrique Carmo Sochi Active 142 / 143 40% 1 06.10.2028 -
Luis Yanes Real Cartagena Active 90 / 88 40% 1 06.10.2028 -
Timofey Simanenka Gomel Active 106 / 88 40% 2 05.10.2028 -
Nupe Godstime Bayelsa United Active 91 / 115 40% 1 05.10.2028 -
Mateo Alcoba Albion Active 85 / 101 40% 1 04.09.2028 -
Alex Verón Vélez Active 118 / 114 40% 1 04.09.2028 -
Mateo Lizondo Colón Active 98 / 110 40% 1 04.09.2028 -
Thobani Gumede AS Police Active 93 / 90 40% 1 28.08.2028 -
Julián Bragado Morón Active 93 / 99 40% 1 28.08.2028 -
Alex Verón Vélez Lost 114 / 131 40% 1 21.08.2028 -
Mateo Faure BATE Active 90 / 91 40% 1 21.08.2028 -
Yury Zhuravlev Fakel Active 116 / 102 69% 1 14.08.2028 Approve
Estanislao López Colón Active 91 / 97 40% 1 07.08.2028 -
Lamine Bèye Portimonense Active 114 / 131 40% 1 07.08.2028 -
Artur Cherny Shinnik Lost 109 / 95 69% 1 24.07.2028 -
Amine Boukamir Charleroi Active 110 / 119 40% 4 18.07.2028 -
Nicolò Moranduzzo Renate Active 98 / 96 40% 4 18.07.2028 -
Musa Danjuma Umraniyespor Active 89 / 97 40% 2 10.07.2028 -
Artem Nosachev Spartak Moscow Active 89 / 94 40% 1 10.07.2028 -
Andrey Ivlev Nizhniy Novgorod Active 120 / 130 40% 3 29.06.2028 -
Christos Mouzakitis Hull City Active 143 / 138 40% 7 29.06.2028 -
Riquelme Thompson-Jones Accrington Stanley Active 106 / 118 40% 3 13.06.2028 -
Bernardo Lima Porto Active 115 / 128 40% 6 13.06.2028 -
Martim Cunha Porto Active 103 / 109 40% 3 10.06.2028 -
Josh Nichols Oldham Athletic Active 125 / 130 40% 5 10.06.2028 -
Daniel Banjaqui Benfica Active 126 / 124 40% 6 08.06.2028 -
Denis Grigorjev Arsenal Tula Active 77 / 77 40% 2 07.06.2028 -
Abubakar Adams Aduana Stars Active 93 / 77 40% 3 05.06.2028 -
Kelian Le Pironnec Mirandés Active 95 / 103 40% 1 05.06.2028 -
Jorthy Mokio ADO Den Haag Active 134 / 131 40% 2 06.05.2028 -
Olivier Leroux Mouscron Active 101 / 119 40% 8 05.05.2028 -
Federico Matarán Giana Erminio Active 99 / 123 40% 3 05.05.2028 -
Ayden Heaven Portsmouth Active 147 / 154 40% 2 04.05.2028 -
Jan Bürger Northampton Town Active 117 / 133 40% 5 03.05.2028 -
Miguel Figueiredo Benfica Active 122 / 124 40% 4 01.05.2028 -
Tyler Fletcher Rotherham United Active 116 / 122 40% 1 29.04.2028 -
Celías Ingenthron Platense Active 122 / 116 40% 1 29.04.2028 -
Simone Suppa Virtus Verona Active 89 / 94 40% 1 27.04.2028 -
Augusto Bando Ascoli Active 106 / 117 40% 1 23.04.2028 -
Honest Ahanor Atalanta Active 131 / 146 40% 4 22.04.2028 -
Kiani Inge Groningen Active 113 / 111 40% 2 20.04.2028 -
Eko Solomon Leixões Active 83 / 98 40% 1 20.04.2028 -
Maxim Radchenko Rostov Active 88 / 94 40% 5 19.04.2028 -
Olivier Mambwa Young Boys Active 107 / 122 40% 3 17.04.2028 -
Andrea Cogoni Cosenza Active 105 / 121 40% 1 17.04.2028 -
Trey Nyoni Rotherham United Active 140 / 150 40% 4 09.04.2028 -
Giovanni Leoni Lincoln City Active 136 / 152 40% 4 30.03.2028 -
Victor Hernandez Santa Fe Active 127 / 119 40% 7 27.03.2028 -
Andrea Bertoncini Triestina Active 100 / 103 40% 1 26.03.2028 -
Josh Acheampong Everton Active 141 / 141 40% 3 22.03.2028 -
Bence Szakos Aris Active 97 / 85 40% 1 20.03.2028 -
Nicolas Sport Recife Active 104 / 122 40% 1 15.03.2028 -
Tobiáš Pališčák Zlin Active 92 / 97 40% 1 10.03.2028 -
Tobías Ramírez River Plate Active 120 / 124 40% 1 09.03.2028 -
Irad Mshindi Liepaja Active 83 / 98 40% 1 14.02.2028 -
Martin Cedidla Club Brugge Active 131 / 132 66% 1 25.01.2028 Approve
Nicolás Fernández Mercau Club America Active 134 / 134 67% 1 25.01.2028 Approve
Matías Canedo Rampla Juniors Active 84 / 84 40% 1 17.01.2028 -
Makar Vysochenko Spartak Moscow Active 96 / 101 67% 7 16.01.2028 Monitor
Jonny Shore New York City Active 92 / 119 40% 2 13.01.2028 -
Juan Camilo Córdoba Deportivo Pereira Active 88 / 103 40% 4 12.01.2028 -
Colin Guske Orlando City Active 97 / 87 40% 1 11.01.2028 -
Ignacio Fernández Boston River Active 83 / 109 40% 2 09.01.2028 -
Matias Siltanen Malmo FF Active 132 / 145 40% 1 07.01.2028 -
Rasmus Nehrman Gefle Active 82 / 71 40% 2 04.01.2028 -
Azizbek Erimbetov Neftchi Active 74 / 92 40% 1 04.01.2028 -
Diego Vargas Universidad de Concepcion Active 91 / 101 40% 1 31.12.2027 -
Onyeuche Ujunwa Ikorodu City Active 86 / 83 40% 5 29.12.2027 -
Hosea Michael Remo Stars Active 101 / 102 40% 4 26.12.2027 -
Joel Ezra Enyimba Active 93 / 101 40% 4 22.12.2027 -
Gonçalo Oliveira Benfica Active 111 / 118 40% 2 20.12.2027 -
Evgeniy Novykh Vitebsk Active 75 / 90 40% 2 17.12.2027 -
Kirill Volkov Volgar Active 91 / 100 40% 1 16.12.2027 -
Frederik Damkjer Viborg Active 92 / 92 40% 1 15.12.2027 -
Matvey Bardachev Zenit Active 99 / 105 40% 1 12.12.2027 -
Abena Ottou Felix Christanval Minsk Active 84 / 82 40% 1 09.12.2027 -
Jon Esenga IF Elfsborg Active 85 / 88 40% 2 08.12.2027 -
Óscar Hinojosa Metropolitanos Active 91 / 76 40% 1 05.12.2027 -
Luciano Posadas Central Córdoba SdE Active 97 / 104 40% 1 28.11.2027 -
Oscar Steinke Brånby Hammarby Active 97 / 114 40% 1 25.11.2027 -
Lucas Camejo River Plate Active 96 / 97 40% 1 24.11.2027 -
Hugo Rojas Instituto Active 99 / 102 40% 1 14.11.2027 -
Timofey Marinkin Dinamo Moscow Active 91 / 87 67% 1 13.11.2027 Monitor
Omar Minatulaev Orenburg Active 81 / 73 67% 2 11.11.2027 Reject
Yiandro Raap Ilves Active 97 / 95 40% 1 11.11.2027 -
Brayan Gil Baltika Active 124 / 109 40% 5 30.06.2027 -
Pedro de la Vega Columbus Crew Active 133 / 134 66% 1 14.06.2027 Approve
Heinz Mörschel Espanyol Active 125 / 113 40% 1 10.06.2027 -
Yegor Vedernikov Irkutsk Active 71 / 84 40% 1 10.06.2027 -
George Hoddle Cambridge United Active 83 / 94 40% 2 08.06.2027 -
Ozziel Herrera Barcelona Active 127 / 141 40% 1 08.06.2027 -
Nikolay Komlichenko Lokomotiv Moscow Active 132 / 115 40% 1 08.06.2027 -
Eduardo Lozano Botafogo Active 152 / 152 40% 4 30.05.2027 -
Mathys Tel Tottenham Active 135 / 147 40% 2 30.05.2027 -
Manfred Ugalde Spartak Moscow Active 138 / 138 40% 6 28.05.2027 -
Ezra Mayers West Ham United Active 113 / 124 40% 1 28.05.2027 -
Rhys Walters Port Vale Active 98 / 113 40% 1 28.05.2027 -
Soufiane Benjdida FC Nantes Active 125 / 127 40% 2 27.05.2027 -
Franculino Brighton Active 132 / 150 40% 4 24.05.2027 -
Ilyas Ansah Hull City Active 132 / 127 40% 2 23.05.2027 -
Luciano Gondou Chelsea Active 130 / 120 40% 2 20.05.2027 -
Bence Dárdai VfL Wolfsburg Active 136 / 145 40% 1 14.05.2027 -
Leandro Martins Benfica Active 96 / 104 40% 1 11.05.2027 -
Konta Ismaily Active 75 / 118 40% 1 09.05.2027 -
Esequiel Barco Spartak Moscow Active 142 / 127 40% 1 08.05.2027 -
Younes Ebnoutalib Eintracht Frankfurt Active 130 / 132 40% 1 05.05.2027 -
Maksim Samorodov Akhmat Grozny Active 119 / 111 40% 1 04.05.2027 -
Egas Cacintura Akhmat Grozny Active 120 / 127 40% 1 02.05.2027 -
Marquinhos Spartak Moscow Active 130 / 139 40% 5 01.05.2027 -
Joe Johnson Luton Town Active 96 / 115 40% 1 30.04.2027 -
Bade Aluko Leicester City Active 110 / 126 40% 1 25.04.2027 -
Mirlind Daku Spartak Moscow Active 123 / 130 40% 2 22.04.2027 -
Arthur Gomes Dinamo Moscow Active 130 / 113 40% 2 08.04.2027 -
David Ozoh Derby County Active 120 / 125 40% 1 06.04.2027 -
Mihailo Ivanović Aston Villa Active 127 / 125 40% 2 05.04.2027 -
Ivan Sergeev Dinamo Moscow Active 133 / 113 40% 2 27.03.2027 -
Norbert Barczak Korona Active 79 / 96 40% 1 19.03.2027 -
Alerrandro CSKA Moscow Active 125 / 127 40% 1 09.03.2027 -
Tamerlan Musaev CSKA Moscow Active 109 / 119 40% 2 08.03.2027 -
Samuele di Benedetto Twente Active 110 / 119 40% 1 07.03.2027 -
Robert Mejía Orenburg Active 107 / 106 40% 1 08.02.2027 -
Ilja Vakhania Krasnodar Active 131 / 106 40% 1 01.02.2027 -
Nail Umyarov Spartak Moscow Active 135 / 128 40% 1 30.01.2027 -
Sampson Dweh Mallorca Active 133 / 134 66% 1 25.01.2027 Approve
Dmitry Tikhiy Volga Active 103 / 98 58% 1 25.01.2027 -
Anton Mitryushkin Lokomotiv Moscow Active 120 / 133 40% 3 23.01.2027 -
Kirill Glebov CSKA Moscow Active 121 / 135 40% 2 20.01.2027 -
Aldo Pérez Guarani Active 114 / 106 40% 2 15.01.2027 -
Alexandr Selikhov Ural Active 118 / 109 40% 5 14.01.2027 -
Ilja Pomazun Spartak Moscow Active 125 / 117 40% 1 13.01.2027 -
Alexandr Koryakin Krasnodar Active 104 / 100 40% 2 12.01.2027 -
Luis Chávez Dinamo Moscow Active 122 / 127 40% 2 12.01.2027 -
Maxim Borisko CSKA Moscow Active 118 / 134 40% 2 08.01.2027 -
Stanislav Agkatsev Brentford Active 143 / 127 40% 6 01.01.2027 -
Joaquín Bigo Tristán Suárez Active 108 / 109 40% 2 01.01.2027 -
Lucas Bergström Union Berlin Active 122 / 130 40% 4 28.12.2026 -
Olakunle Olusegun Rostov Active 117 / 133 40% 1 24.12.2026 -
Rustam Yatimov Rostov Active 129 / 132 40% 3 20.12.2026 -
Otávio Spartak Moscow Active 138 / 143 40% 1 16.12.2026 -
Igor Leschuk Dinamo Moscow Active 111 / 121 40% 1 14.12.2026 -
Bogdan Ovsyannikov Orenburg Active 99 / 100 40% 6 12.12.2026 -
Pedro Rocha Juventude Active 112 / 121 40% 1 08.12.2026 -
Luiz Felipe Lokomotiv Moscow Active 100 / 121 40% 2 07.12.2026 -
Harvey Vale Queens Park Rangers Active 121 / 119 40% 1 03.12.2026 -
Samuel Brolin Kalmar FF Active 117 / 109 40% 2 30.11.2026 -
Lechi Sadulaev Akhmat Grozny Active 128 / 107 40% 2 29.11.2026 -
Batxi Krasnodar Active 132 / 115 40% 1 29.11.2026 -
Facundo Altamirano San Lorenzo Active 126 / 124 40% 1 25.11.2026 -
Fernando Costanza Krylya Sovetov Active 122 / 136 40% 1 24.11.2026 -
Francisco Meixedo Feirense Active 118 / 101 40% 3 18.11.2026 -
Rubén Blanco Yokohama F. Marinos Active 143 / 150 40% 2 13.11.2026 -
Sébastien Cibois Portimonense Active 111 / 118 40% 1 13.11.2026 -
Lucas Vera Lokomotiv Moscow Active 114 / 121 40% 1 09.11.2026 -
Matthias Seidl Rapid Wien Active 127 / 130 40% 1 08.11.2026 -
Tyrhys Dolan Espanyol Active 142 / 134 40% 1 03.11.2026 -
Rubens Dinamo Moscow Active 125 / 144 40% 2 02.11.2026 -
Iker Pozo Rodina Active 114 / 119 40% 1 02.11.2026 -
Nikita Medvedev Nizhniy Novgorod Active 101 / 118 40% 3 31.10.2026 -
Denis Adamov Zenit Active 127 / 130 40% 2 31.10.2026 -
Alex Bono DC United Active 127 / 113 40% 1 30.10.2026 -
Ivan Lomaev Ufa Active 98 / 96 40% 3 27.10.2026 -
Fedor Lapoukhov Osasuna Active 113 / 129 40% 1 26.10.2026 -
Alexandr Chernikov Krasnodar Active 123 / 115 40% 1 24.10.2026 -
Abduvohid Ne'matov Nasaf Active 111 / 121 40% 2 21.10.2026 -
Filip Marschall Stevenage Active 112 / 100 40% 1 07.10.2026 -
Husain Norchayev Navbahor Active 106 / 112 40% 1 07.10.2026 -
Vladimir Nazarov Pakhtakor Active 97 / 131 40% 1 05.10.2026 -
Nikita Krivtsov Krasnodar Active 138 / 123 40% 3 01.10.2026 -
Lucas Souto Defensa y Justicia Active 116 / 132 40% 1 27.09.2026 -
Dmitry Vasiljev Orenburg Active 105 / 106 40% 1 27.09.2026 -
Diyor Xolmatov Navbahor Active 120 / 106 40% 1 25.09.2026 -
Manu Morlanes Mallorca Active 139 / 128 40% 1 24.09.2026 -
Jay Matete Milton Keynes Dons Active 113 / 122 40% 1 23.09.2026 -
Mihajlo Banjac Krylya Sovetov Active 110 / 122 40% 1 23.09.2026 -
Sergey Pinyaev Lokomotiv Moscow Active 130 / 126 40% 1 20.09.2026 -
Lawrence Ennali Houston Dynamo Active 111 / 125 40% 1 15.09.2026 -
Mikhail Ignatov Sochi Active 107 / 127 40% 2 14.09.2026 -
Million Manhoef Stoke City Active 115 / 126 40% 1 14.09.2026 -
Temirlan Anarbekov Kairat Active 97 / 97 40% 1 24.08.2026 -
Marin Žgomba Vitebsk Active 90 / 76 40% 1 10.08.2026 -
Gabriel Martinelli Arsenal Active 163 / 164 40% 1 01.08.2026 -